Time;durP1;ratioP1;P1;durP2;ratioP2;P2;SDS_P1;SDS_P2;PMS_P1;PMS_P2;Temp;Humidity;BMP_temperature;BMP_pressure;BME280_temperature;BME280_humidity;BME280_pressure;Samples;Min_cycle;Max_cycle;Signal;HPM_P1;HPM_P2
2021/12/14 00:00:56;;;;;;;15.40;13.20;;;7.40;99.90;;;;;;4998560;28;20214;-76
2021/12/14 00:03:29;;;;;;;16.98;14.05;;;7.30;99.90;;;;;;5002613;28;20233;-76
2021/12/14 00:05:56;;;;;;;14.55;12.90;;;7.30;99.90;;;;;;4991983;28;20207;-76
2021/12/14 00:08:26;;;;;;;16.48;14.50;;;7.30;99.90;;;;;;5006137;28;20198;-76
2021/12/14 00:13:54;;;;;;;15.82;13.57;;;7.20;99.90;;;;;;4999159;28;20682;-76
2021/12/14 00:16:22;;;;;;;16.15;13.32;;;7.20;99.90;;;;;;4992322;28;20221;-76
2021/12/14 00:18:49;;;;;;;16.05;14.07;;;7.30;99.90;;;;;;4990986;28;20199;-76
2021/12/14 00:21:21;;;;;;;17.30;14.25;;;7.30;99.90;;;;;;4992257;28;20218;-76
2021/12/14 00:24:06;;;;;;;18.00;14.65;;;7.30;99.90;;;;;;4997003;28;20222;-76
2021/12/14 00:26:37;;;;;;;15.52;13.90;;;7.30;99.90;;;;;;4992296;28;20754;-76
2021/12/14 00:29:05;;;;;;;18.23;14.98;;;7.30;99.90;;;;;;5009881;28;20205;-76
2021/12/14 00:31:34;;;;;;;16.52;13.35;;;7.30;99.90;;;;;;5008299;28;20198;-76
2021/12/14 00:34:04;;;;;;;16.98;15.18;;;7.30;99.90;;;;;;5001841;28;20577;-75
2021/12/14 00:36:31;;;;;;;15.85;14.20;;;7.30;99.90;;;;;;4999637;28;20210;-76
2021/12/14 00:38:58;;;;;;;16.13;14.40;;;7.40;99.90;;;;;;5009615;28;20194;-76
2021/12/14 00:41:29;;;;;;;17.10;14.63;;;7.30;99.90;;;;;;5010716;28;20209;-76
2021/12/14 00:43:59;;;;;;;16.65;14.82;;;7.40;99.90;;;;;;4997758;28;20753;-76
2021/12/14 00:46:26;;;;;;;16.85;13.63;;;7.40;99.90;;;;;;4992616;28;20693;-75
2021/12/14 00:48:53;;;;;;;16.67;13.85;;;7.30;99.90;;;;;;4995148;28;20226;-76
2021/12/14 00:51:27;;;;;;;14.63;13.10;;;7.30;99.90;;;;;;5006260;28;20554;-76
2021/12/14 00:53:54;;;;;;;16.25;13.95;;;7.30;99.90;;;;;;4991140;28;20246;-76
2021/12/14 00:56:21;;;;;;;15.55;13.70;;;7.30;99.90;;;;;;5010989;28;20199;-76
2021/12/14 00:58:48;;;;;;;15.65;13.13;;;7.30;99.90;;;;;;4999795;28;20199;-75
2021/12/14 01:01:20;;;;;;;15.30;12.52;;;7.40;99.90;;;;;;4996516;28;20212;-76
2021/12/14 01:03:56;;;;;;;16.10;13.60;;;7.40;99.90;;;;;;5007141;28;20229;-76
2021/12/14 01:06:27;;;;;;;14.15;12.57;;;7.40;99.90;;;;;;5010890;28;20252;-76
2021/12/14 01:08:54;;;;;;;14.77;13.20;;;7.40;99.90;;;;;;5002925;28;20277;-76
2021/12/14 01:11:24;;;;;;;17.60;13.90;;;7.40;99.90;;;;;;5007216;28;20195;-76
2021/12/14 01:14:00;;;;;;;15.15;12.30;;;7.50;99.90;;;;;;5007259;28;20215;-76
2021/12/14 01:16:35;;;;;;;14.85;12.55;;;7.40;99.90;;;;;;4990843;28;20671;-76
2021/12/14 01:19:15;;;;;;;14.55;12.85;;;7.50;99.90;;;;;;4994172;28;20337;-76
2021/12/14 01:22:10;;;;;;;14.65;13.05;;;7.50;99.90;;;;;;4994026;28;20227;-76
2021/12/14 01:25:00;;;;;;;14.85;12.85;;;7.50;99.90;;;;;;4996142;28;20266;-76
2021/12/14 01:27:32;;;;;;;16.67;12.30;;;7.50;99.90;;;;;;4995638;28;20209;-76
2021/12/14 01:30:04;;;;;;;14.90;12.70;;;7.40;99.90;;;;;;4994138;28;20205;-76
2021/12/14 01:32:36;;;;;;;13.95;12.43;;;7.40;99.90;;;;;;4994450;28;20616;-76
2021/12/14 01:35:11;;;;;;;14.90;11.10;;;7.40;99.90;;;;;;5011163;28;20218;-76
2021/12/14 01:37:43;;;;;;;15.45;12.32;;;7.40;99.90;;;;;;5009898;28;20261;-76
2021/12/14 01:40:19;;;;;;;15.43;13.77;;;7.40;99.90;;;;;;4994520;28;20200;-75
2021/12/14 01:42:47;;;;;;;16.88;13.43;;;7.40;99.90;;;;;;5013074;28;20198;-76
2021/12/14 01:45:17;;;;;;;16.13;13.02;;;7.30;99.90;;;;;;5014300;28;20288;-75
2021/12/14 01:47:49;;;;;;;15.20;13.57;;;7.20;99.90;;;;;;5008539;28;20223;-76
2021/12/14 01:50:22;;;;;;;15.27;12.38;;;7.20;99.90;;;;;;4996250;28;20203;-76
2021/12/14 01:52:49;;;;;;;15.43;13.18;;;7.10;99.90;;;;;;5007231;28;20234;-76
2021/12/14 01:55:21;;;;;;;16.83;14.73;;;7.10;99.90;;;;;;5012601;28;20205;-75
2021/12/14 01:57:48;;;;;;;17.80;14.05;;;7.10;99.90;;;;;;5001327;28;20281;-76
2021/12/14 02:00:20;;;;;;;20.63;14.77;;;7.10;99.90;;;;;;5010530;28;20652;-75
2021/12/14 02:02:49;;;;;;;17.42;14.63;;;7.00;99.90;;;;;;5010907;28;20191;-76
2021/12/14 02:05:21;;;;;;;16.73;14.13;;;7.00;99.90;;;;;;5009894;28;20238;-76
2021/12/14 02:07:48;;;;;;;17.35;14.00;;;6.90;99.90;;;;;;5006100;28;20563;-75
2021/12/14 02:10:24;;;;;;;18.55;14.90;;;6.90;99.90;;;;;;5012474;28;20285;-76
2021/12/14 02:12:52;;;;;;;21.70;16.67;;;6.90;99.90;;;;;;4995475;28;20601;-75
2021/12/14 02:15:24;;;;;;;20.05;16.15;;;6.80;99.90;;;;;;4994467;28;20191;-75
2021/12/14 02:17:54;;;;;;;20.63;15.60;;;6.80;99.90;;;;;;4993872;28;20198;-76
2021/12/14 02:20:24;;;;;;;21.73;16.02;;;6.80;99.90;;;;;;5008438;28;20290;-76
2021/12/14 02:22:53;;;;;;;21.63;16.13;;;6.70;99.90;;;;;;5012116;28;20692;-76
2021/12/14 02:25:21;;;;;;;20.67;16.60;;;6.80;99.90;;;;;;4996485;28;20657;-76
2021/12/14 02:27:52;;;;;;;21.38;16.60;;;6.70;99.90;;;;;;4997029;28;20199;-76
2021/12/14 02:30:22;;;;;;;20.67;15.90;;;6.70;99.90;;;;;;5011111;28;20291;-76
2021/12/14 02:43:54;;;;;;;19.98;15.40;;;6.80;99.90;;;;;;4994100;28;20293;-76
2021/12/14 02:46:24;;;;;;;20.60;16.17;;;6.80;99.90;;;;;;5013057;28;20230;-75
2021/12/14 02:48:55;;;;;;;16.48;13.57;;;6.80;99.90;;;;;;4995028;28;20201;-76
2021/12/14 02:51:27;;;;;;;20.13;15.88;;;6.80;99.90;;;;;;4993668;28;20195;-76
2021/12/14 02:53:58;;;;;;;22.60;15.57;;;6.80;99.90;;;;;;4998695;28;20214;-76
2021/12/14 02:56:28;;;;;;;25.83;16.60;;;6.80;99.90;;;;;;4993605;28;20238;-76
2021/12/14 02:59:01;;;;;;;22.63;16.35;;;6.80;99.90;;;;;;4994447;28;20202;-76
2021/12/14 03:01:29;;;;;;;24.58;17.70;;;6.60;99.90;;;;;;4993484;28;20195;-76
2021/12/14 03:04:00;;;;;;;26.38;18.42;;;6.50;99.90;;;;;;4999531;28;20571;-76
2021/12/14 03:06:28;;;;;;;25.05;18.65;;;6.50;99.90;;;;;;5010721;28;20223;-76
2021/12/14 03:09:08;;;;;;;20.63;15.77;;;6.50;99.90;;;;;;5005902;28;20201;-76
2021/12/14 03:11:36;;;;;;;20.20;15.60;;;6.50;99.90;;;;;;4992700;28;20289;-76
2021/12/14 03:14:05;;;;;;;27.15;17.63;;;6.60;99.90;;;;;;4993425;28;20709;-76
2021/12/14 03:16:35;;;;;;;21.77;16.05;;;6.60;99.90;;;;;;5004658;28;20278;-76
2021/12/14 03:19:06;;;;;;;23.70;16.95;;;6.70;99.90;;;;;;4995245;28;20293;-76
2021/12/14 03:21:37;;;;;;;23.27;16.40;;;6.70;99.90;;;;;;5008991;28;20211;-76
2021/12/14 03:24:08;;;;;;;18.67;15.55;;;6.80;99.90;;;;;;4993095;28;20215;-76
2021/12/14 03:26:39;;;;;;;25.77;17.50;;;6.80;99.90;;;;;;5002077;28;20215;-76
2021/12/14 03:29:10;;;;;;;20.73;14.80;;;6.90;99.90;;;;;;5004106;28;20191;-75
2021/12/14 03:31:39;;;;;;;27.55;17.85;;;6.90;99.90;;;;;;4998635;28;20195;-76
2021/12/14 03:34:10;;;;;;;23.65;15.95;;;6.90;99.90;;;;;;5002072;28;20283;-76
2021/12/14 03:36:40;;;;;;;22.77;16.60;;;6.90;99.90;;;;;;5007384;28;20650;-76
2021/12/14 03:39:13;;;;;;;21.63;15.20;;;6.90;99.90;;;;;;4999887;28;20202;-76
2021/12/14 03:41:43;;;;;;;22.23;15.63;;;6.90;99.90;;;;;;5011130;28;20666;-76
2021/12/14 03:44:15;;;;;;;27.85;16.88;;;6.90;99.90;;;;;;5007170;28;20237;-76
2021/12/14 03:46:50;;;;;;;22.88;15.90;;;6.90;99.90;;;;;;4992906;28;20222;-76
2021/12/14 03:49:22;;;;;;;23.65;15.82;;;6.90;99.90;;;;;;4997247;28;20195;-76
2021/12/14 03:51:49;;;;;;;25.25;15.80;;;6.90;99.90;;;;;;4992712;28;20191;-76
2021/12/14 03:54:18;;;;;;;21.90;16.10;;;6.90;99.90;;;;;;4995040;28;20219;-76
2021/12/14 03:56:45;;;;;;;21.70;16.17;;;7.00;99.90;;;;;;5005270;28;20207;-76
2021/12/14 03:59:14;;;;;;;23.38;17.50;;;7.00;99.90;;;;;;5000048;28;20770;-76
2021/12/14 04:01:44;;;;;;;18.90;14.90;;;7.10;99.90;;;;;;5011011;28;20229;-76
2021/12/14 04:04:16;;;;;;;18.33;14.43;;;7.10;99.90;;;;;;4992710;28;20211;-76
2021/12/14 04:06:45;;;;;;;20.42;14.27;;;7.20;99.90;;;;;;4992048;28;20233;-75
2021/12/14 04:09:15;;;;;;;17.15;12.10;;;7.20;99.90;;;;;;4991059;28;20598;-75
2021/12/14 04:11:42;;;;;;;17.27;11.75;;;7.20;99.90;;;;;;4997707;28;20282;-75
2021/12/14 04:14:10;;;;;;;20.65;13.93;;;7.10;99.90;;;;;;5004015;28;20226;-76
2021/12/14 04:16:40;;;;;;;17.70;13.10;;;7.10;99.90;;;;;;4992295;28;20587;-76
2021/12/14 04:19:11;;;;;;;19.45;12.95;;;7.10;99.90;;;;;;4997567;28;20209;-75
2021/12/14 04:21:43;;;;;;;16.85;13.20;;;7.10;99.90;;;;;;5002679;28;20199;-76
2021/12/14 04:24:12;;;;;;;19.13;13.80;;;7.20;99.90;;;;;;4995101;28;20215;-75
2021/12/14 04:26:44;;;;;;;20.02;12.68;;;7.10;99.90;;;;;;5003531;28;20325;-76
2021/12/14 04:29:12;;;;;;;16.60;12.18;;;7.10;99.90;;;;;;4992916;28;20203;-76
2021/12/14 04:31:43;;;;;;;17.38;12.88;;;7.00;99.90;;;;;;5000848;28;20289;-75
2021/12/14 04:34:10;;;;;;;19.50;12.05;;;6.90;99.90;;;;;;5007219;28;20778;-75
2021/12/14 04:36:39;;;;;;;19.13;12.73;;;6.80;99.90;;;;;;4995700;28;20233;-75
2021/12/14 04:39:31;;;;;;;20.67;11.70;;;6.70;99.90;;;;;;4992313;28;20213;-76
2021/12/14 04:53:27;;;;;;;21.63;11.10;;;5.90;99.90;;;;;;4997597;28;20698;-75
2021/12/14 04:55:59;;;;;;;16.90;10.02;;;5.80;99.90;;;;;;5006685;28;20199;-76
2021/12/14 04:58:28;;;;;;;22.13;12.30;;;5.70;99.90;;;;;;5004658;28;20199;-76
2021/12/14 05:00:56;;;;;;;15.48;10.88;;;5.70;99.90;;;;;;4997567;28;20286;-90
2021/12/14 05:03:30;;;;;;;17.90;10.98;;;5.80;99.90;;;;;;5000573;28;20229;-82
2021/12/14 05:06:10;;;;;;;15.02;10.40;;;5.90;99.90;;;;;;5014766;28;20223;-82
2021/12/14 05:11:24;;;;;;;15.65;10.55;;;6.10;99.90;;;;;;5014376;28;20688;-81
2021/12/14 05:13:54;;;;;;;15.80;10.05;;;6.10;99.90;;;;;;5002408;28;20230;-82
2021/12/14 05:16:24;;;;;;;20.88;11.05;;;6.10;99.90;;;;;;5008249;28;20659;-82
2021/12/14 05:18:55;;;;;;;16.90;11.60;;;6.00;99.90;;;;;;5005042;28;20199;-81
2021/12/14 05:21:26;;;;;;;15.50;10.85;;;5.90;99.90;;;;;;5006685;28;20869;-89
2021/12/14 05:23:54;;;;;;;16.63;11.13;;;5.90;99.90;;;;;;5003435;28;20221;-83
2021/12/14 05:26:23;;;;;;;15.40;10.07;;;6.00;99.90;;;;;;4998083;28;20225;-82
2021/12/14 05:28:50;;;;;;;13.98;10.30;;;6.00;99.90;;;;;;4994890;28;20209;-87
2021/12/14 05:31:17;;;;;;;16.80;10.88;;;6.10;99.90;;;;;;5009458;28;20194;-86
2021/12/14 05:33:45;;;;;;;20.10;9.82;;;6.20;99.90;;;;;;4994743;28;20225;-88
2021/12/14 05:36:17;;;;;;;11.95;9.05;;;6.20;99.90;;;;;;5000496;28;20209;-88
2021/12/14 05:38:54;;;;;;;15.55;9.77;;;6.10;99.90;;;;;;5006219;28;20250;-89
2021/12/14 05:44:12;;;;;;;16.65;10.52;;;5.80;99.90;;;;;;4993148;28;20219;-89
2021/12/14 05:46:40;;;;;;;14.40;10.13;;;5.70;99.90;;;;;;4997508;28;20226;-89
2021/12/14 05:49:11;;;;;;;15.75;9.95;;;5.70;99.90;;;;;;5004832;28;20554;-88
2021/12/14 05:51:39;;;;;;;15.82;10.48;;;5.70;99.90;;;;;;5005417;28;20205;-88
2021/12/14 05:54:07;;;;;;;19.98;11.93;;;5.70;99.90;;;;;;4985964;28;21598;-87
2021/12/14 05:56:34;;;;;;;22.75;12.82;;;5.60;99.90;;;;;;5003596;28;20201;-86
2021/12/14 05:59:03;;;;;;;18.77;11.63;;;5.60;99.90;;;;;;5002130;28;20199;-87
2021/12/14 06:01:33;;;;;;;20.13;12.10;;;5.60;99.90;;;;;;5002695;28;20195;-88
2021/12/14 06:04:02;;;;;;;16.67;11.75;;;5.60;99.90;;;;;;4994352;28;20219;-89
2021/12/14 06:06:32;;;;;;;16.92;12.10;;;5.60;99.90;;;;;;4998100;28;20698;-87
2021/12/14 06:09:05;;;;;;;18.65;12.52;;;5.60;99.90;;;;;;5001252;28;20202;-87
2021/12/14 06:11:32;;;;;;;18.35;11.88;;;5.70;99.90;;;;;;5001796;28;20234;-87
2021/12/14 06:14:00;;;;;;;19.75;12.50;;;5.70;99.90;;;;;;4992701;28;20222;-88
2021/12/14 06:16:29;;;;;;;22.58;12.50;;;5.70;99.90;;;;;;4988322;28;20223;-85
2021/12/14 06:19:15;;;;;;;19.65;12.35;;;5.80;99.90;;;;;;4998361;28;20203;-85
2021/12/14 06:21:43;;;;;;;30.90;13.98;;;5.80;99.90;;;;;;4995154;28;20199;-87
2021/12/14 06:24:12;;;;;;;23.45;14.20;;;5.80;99.90;;;;;;5005015;28;20718;-87
2021/12/14 06:26:42;;;;;;;40.15;15.23;;;5.80;99.90;;;;;;4993141;28;20231;-87
2021/12/14 06:29:12;;;;;;;18.77;12.80;;;5.80;99.90;;;;;;4997870;28;20558;-94
2021/12/14 06:31:41;;;;;;;28.33;14.07;;;5.80;99.90;;;;;;4997558;28;20203;-93
2021/12/14 06:34:20;;;;;;;56.38;15.55;;;5.80;99.90;;;;;;5002144;28;20215;-94
2021/12/14 06:37:41;;;;;;;24.20;12.85;;;5.70;99.90;;;;;;5004123;28;20627;-94
2021/12/14 06:40:18;;;;;;;21.70;11.73;;;5.70;99.90;;;;;;5008425;28;20207;-95
2021/12/14 06:42:48;;;;;;;22.27;13.15;;;5.70;99.90;;;;;;5009340;28;20219;-95
2021/12/14 06:45:55;;;;;;;53.15;14.48;;;5.70;99.90;;;;;;5000227;28;20270;-96
2021/12/14 06:48:26;;;;;;;61.03;14.65;;;5.70;99.90;;;;;;5013733;28;20229;-94
2021/12/14 06:50:56;;;;;;;43.03;13.80;;;5.60;99.90;;;;;;5017919;28;20252;-93
2021/12/14 06:53:25;;;;;;;28.60;13.93;;;5.50;99.90;;;;;;5025251;28;20198;-95
2021/12/14 06:55:55;;;;;;;36.55;15.35;;;5.30;99.90;;;;;;5025106;28;20202;-95
2021/12/14 06:58:25;;;;;;;33.92;15.00;;;5.20;99.90;;;;;;5025841;28;20186;-93
2021/12/14 07:01:04;;;;;;;26.77;15.23;;;5.10;99.90;;;;;;5020888;28;20211;-93
2021/12/14 07:03:40;;;;;;;26.52;14.98;;;5.10;99.90;;;;;;5018013;28;20234;-93
2021/12/14 07:06:08;;;;;;;30.52;14.88;;;5.10;99.90;;;;;;5003745;28;20228;-93
2021/12/14 07:08:35;;;;;;;49.53;15.77;;;5.10;99.90;;;;;;5002759;28;20223;-93
2021/12/14 07:11:04;;;;;;;28.27;15.00;;;5.00;99.90;;;;;;5005155;28;20191;-94
2021/12/14 07:13:37;;;;;;;27.83;15.10;;;5.00;99.90;;;;;;5000142;28;20218;-92
2021/12/14 07:16:19;;;;;;;29.25;15.18;;;5.00;99.90;;;;;;4994033;28;20207;-92
2021/12/14 07:18:52;;;;;;;26.20;13.95;;;5.00;99.90;;;;;;4997764;28;20651;-92
2021/12/14 07:21:37;;;;;;;25.88;13.95;;;4.90;99.90;;;;;;5008317;28;20293;-92
2021/12/14 07:24:40;;;;;;;24.67;13.13;;;4.90;99.90;;;;;;5000521;28;20301;-91
2021/12/14 07:27:25;;;;;;;30.83;14.30;;;4.90;99.90;;;;;;5000913;28;20223;-93
2021/12/14 07:29:53;;;;;;;22.33;13.18;;;4.90;99.90;;;;;;5000599;28;20199;-86
2021/12/14 07:32:55;;;;;;;26.20;14.70;;;4.90;99.90;;;;;;5003351;28;20272;-94
2021/12/14 07:35:39;;;;;;;20.42;12.90;;;4.90;99.90;;;;;;4921601;29;20660;-94
2021/12/14 07:38:32;;;;;;;22.35;13.93;;;4.90;99.90;;;;;;4924946;29;20199;-94
2021/12/14 07:41:10;;;;;;;21.05;13.07;;;5.00;99.90;;;;;;4974088;28;20241;-94
2021/12/14 07:43:46;;;;;;;17.92;11.93;;;5.00;99.90;;;;;;4996634;28;20305;-95
2021/12/14 07:46:18;;;;;;;19.67;12.80;;;5.00;99.90;;;;;;5000803;28;20226;-96
2021/12/14 07:48:48;;;;;;;19.23;12.88;;;4.90;99.90;;;;;;5006141;28;20205;-94
2021/12/14 07:51:17;;;;;;;17.15;11.48;;;4.90;99.90;;;;;;4995768;28;20211;-94
2021/12/14 07:53:47;;;;;;;19.10;11.85;;;4.90;99.90;;;;;;4996017;28;20231;-95
2021/12/14 07:56:36;;;;;;;17.65;12.40;;;4.90;99.90;;;;;;5001586;28;20221;-94
2021/12/14 07:59:16;;;;;;;19.98;14.05;;;4.90;99.90;;;;;;5011296;28;20556;-93
2021/12/14 08:01:43;;;;;;;18.02;12.45;;;4.90;99.90;;;;;;5002166;28;20194;-93
2021/12/14 08:04:12;;;;;;;19.92;11.75;;;4.80;99.90;;;;;;5003729;28;20299;-93
2021/12/14 08:06:52;;;;;;;16.38;11.52;;;4.80;99.90;;;;;;5003520;28;20215;-95
2021/12/14 08:09:47;;;;;;;14.68;10.68;;;4.80;99.90;;;;;;5009996;28;20838;-94
2021/12/14 08:12:33;;;;;;;15.73;10.95;;;4.70;99.90;;;;;;5002902;28;20219;-94
2021/12/14 08:15:09;;;;;;;12.25;9.90;;;4.80;99.90;;;;;;4978017;28;20205;-91
2021/12/14 08:17:38;;;;;;;13.13;10.57;;;4.90;99.90;;;;;;4994877;28;20198;-90
2021/12/14 08:20:09;;;;;;;16.10;10.65;;;5.00;99.90;;;;;;5000156;28;20250;-92
2021/12/14 08:22:40;;;;;;;13.70;9.95;;;5.10;99.90;;;;;;4994455;28;20232;-91
2021/12/14 08:25:09;;;;;;;13.68;9.77;;;5.10;99.90;;;;;;4994892;28;20750;-91
2021/12/14 08:27:36;;;;;;;12.93;10.38;;;5.20;99.90;;;;;;4999740;28;20309;-90
2021/12/14 08:30:10;;;;;;;12.52;9.95;;;5.30;99.90;;;;;;5008500;28;20201;-91
2021/12/14 08:32:39;;;;;;;12.80;10.25;;;5.40;99.90;;;;;;5007353;28;20218;-92
2021/12/14 08:35:10;;;;;;;9.95;8.15;;;5.50;99.90;;;;;;5004299;28;20570;-91
2021/12/14 08:37:41;;;;;;;11.35;9.75;;;5.60;99.90;;;;;;4999347;28;20230;-91
2021/12/14 08:40:13;;;;;;;14.57;10.65;;;5.70;99.90;;;;;;5003232;28;20758;-91
2021/12/14 08:42:49;;;;;;;14.02;9.93;;;5.80;99.90;;;;;;5008440;28;20348;-91
2021/12/14 08:45:26;;;;;;;11.70;9.48;;;5.90;99.90;;;;;;5010954;28;20229;-92
2021/12/14 08:47:57;;;;;;;12.25;10.35;;;5.90;99.90;;;;;;4990052;28;20211;-91
2021/12/14 08:50:25;;;;;;;11.15;9.60;;;5.90;99.90;;;;;;5006952;28;20205;-91
2021/12/14 08:52:53;;;;;;;13.40;10.10;;;5.80;99.90;;;;;;4994417;28;20242;-91
2021/12/14 08:55:22;;;;;;;18.90;16.50;;;5.70;99.90;;;;;;5000020;28;20203;-91
2021/12/14 08:58:05;;;;;;;13.15;11.00;;;5.80;99.90;;;;;;5452777;23;20595;-84
2021/12/14 09:00:37;;;;;;;12.25;10.10;;;5.80;99.90;;;;;;5015941;28;20718;-81
2021/12/14 09:03:07;;;;;;;10.77;9.10;;;5.90;99.90;;;;;;5029922;28;20217;-81
2021/12/14 09:05:38;;;;;;;10.52;9.20;;;5.90;99.90;;;;;;5016568;28;20199;-81
2021/12/14 09:08:06;;;;;;;11.20;9.25;;;5.90;99.90;;;;;;5015661;28;20240;-83
2021/12/14 09:10:35;;;;;;;10.20;8.75;;;6.00;99.90;;;;;;5006531;28;20221;-78
2021/12/14 09:13:07;;;;;;;12.40;9.88;;;6.00;99.90;;;;;;5009911;28;20642;-82
2021/12/14 09:15:40;;;;;;;11.40;10.13;;;6.10;99.90;;;;;;5011927;28;20659;-84
2021/12/14 09:18:08;;;;;;;9.75;8.23;;;6.30;99.90;;;;;;5033155;23;20226;-91
2021/12/14 09:20:39;;;;;;;11.65;8.50;;;6.30;99.90;;;;;;5047132;28;20221;-91
2021/12/14 09:23:10;;;;;;;11.50;8.70;;;6.40;99.90;;;;;;5035791;28;20237;-93
2021/12/14 09:25:39;;;;;;;10.57;8.27;;;6.40;99.90;;;;;;5022516;28;20200;-86
2021/12/14 09:28:09;;;;;;;10.27;8.48;;;6.50;99.90;;;;;;5024577;28;20816;-90
2021/12/14 09:30:44;;;;;;;9.98;8.05;;;6.50;99.90;;;;;;5015215;28;20264;-84
2021/12/14 09:33:14;;;;;;;9.02;8.10;;;6.50;99.90;;;;;;5015860;28;20199;-96
2021/12/14 09:35:42;;;;;;;10.50;8.57;;;6.60;99.90;;;;;;5017010;28;20721;-95
2021/12/14 09:38:12;;;;;;;9.27;8.38;;;6.60;99.90;;;;;;5015315;28;20731;-93
2021/12/14 09:40:43;;;;;;;9.80;8.35;;;6.70;99.90;;;;;;5014472;28;20199;-90
2021/12/14 09:43:11;;;;;;;9.48;8.25;;;6.80;99.90;;;;;;5015692;28;20195;-94
2021/12/14 09:45:43;;;;;;;9.82;8.35;;;6.80;99.90;;;;;;5019326;28;20209;-92
2021/12/14 09:48:12;;;;;;;9.43;8.50;;;6.90;99.90;;;;;;5016043;28;20218;-90
2021/12/14 09:50:40;;;;;;;10.90;9.00;;;6.90;99.90;;;;;;5014556;28;20565;-88
2021/12/14 09:53:11;;;;;;;9.98;8.70;;;7.00;99.90;;;;;;5015269;28;20257;-95
2021/12/14 09:55:43;;;;;;;9.93;8.63;;;7.00;99.90;;;;;;5014951;28;20199;-87
2021/12/14 09:58:14;;;;;;;9.25;8.30;;;7.10;99.90;;;;;;5024466;28;20238;-90
2021/12/14 10:00:48;;;;;;;10.25;8.75;;;7.10;99.90;;;;;;5022377;28;20260;-88
2021/12/14 10:03:16;;;;;;;9.95;8.45;;;7.00;99.90;;;;;;5017560;28;20202;-91
2021/12/14 10:05:46;;;;;;;9.57;8.57;;;7.00;99.90;;;;;;5016589;28;20253;-94
2021/12/14 10:08:19;;;;;;;10.18;9.07;;;7.00;99.90;;;;;;5015594;28;20230;-90
2021/12/14 10:10:52;;;;;;;8.90;7.70;;;7.00;99.90;;;;;;5014734;28;20198;-90
2021/12/14 10:13:19;;;;;;;9.98;8.45;;;7.10;99.90;;;;;;5017394;28;20741;-90
2021/12/14 10:15:51;;;;;;;10.95;9.10;;;7.20;99.90;;;;;;5015622;28;20230;-91
2021/12/14 10:18:22;;;;;;;10.77;9.48;;;7.20;99.90;;;;;;5001644;28;20771;-91
2021/12/14 10:20:53;;;;;;;10.70;9.20;;;7.30;99.90;;;;;;5002124;28;20199;-86
2021/12/14 10:23:22;;;;;;;9.85;8.50;;;7.40;99.90;;;;;;5014168;28;20209;-89
2021/12/14 10:25:50;;;;;;;10.60;9.50;;;7.40;99.90;;;;;;5013925;28;20205;-90
2021/12/14 10:28:18;;;;;;;11.90;9.55;;;7.40;99.90;;;;;;5013654;28;20869;-88
2021/12/14 10:30:54;;;;;;;10.27;8.90;;;7.30;99.90;;;;;;5013287;28;20193;-89
2021/12/14 10:33:22;;;;;;;9.80;8.82;;;7.30;99.90;;;;;;4993513;28;20209;-89
2021/12/14 10:35:53;;;;;;;11.88;9.40;;;7.40;99.90;;;;;;4994088;28;20207;-88
2021/12/14 10:38:28;;;;;;;11.63;8.88;;;7.40;99.90;;;;;;4993573;28;20230;-88
2021/12/14 10:43:43;;;;;;;9.73;8.82;;;7.40;99.90;;;;;;5013228;28;20187;-86
2021/12/14 10:46:16;;;;;;;10.52;9.32;;;7.40;99.90;;;;;;5012755;28;20661;-83
2021/12/14 10:48:47;;;;;;;11.43;9.60;;;7.40;99.90;;;;;;5012848;28;20308;-90
2021/12/14 10:51:18;;;;;;;10.82;9.73;;;7.50;99.90;;;;;;5013253;28;20281;-89
2021/12/14 10:53:49;;;;;;;10.23;9.15;;;7.60;99.90;;;;;;5012683;28;20309;-90
2021/12/14 10:56:21;;;;;;;10.68;9.57;;;7.70;99.90;;;;;;5013480;28;20221;-90
2021/12/14 10:58:52;;;;;;;11.77;10.10;;;7.80;99.90;;;;;;5012863;28;20779;-93
2021/12/14 11:01:27;;;;;;;11.88;10.68;;;7.90;99.90;;;;;;5013492;28;20197;-93
2021/12/14 11:03:57;;;;;;;11.52;10.20;;;8.00;99.90;;;;;;5013988;28;20190;-91
2021/12/14 11:06:29;;;;;;;11.25;10.15;;;8.10;99.90;;;;;;5013541;28;20197;-92
2021/12/14 11:09:39;;;;;;;11.80;10.57;;;8.20;99.90;;;;;;5012406;28;20253;-91
2021/12/14 11:11:52;;;;;;;11.50;10.40;;;8.40;99.90;;;;;;5012221;28;20199;-76
2021/12/14 11:14:23;;;;;;;11.70;9.85;;;8.50;99.90;;;;;;5012617;28;20692;-75
2021/12/14 11:19:43;;;;;;;12.18;9.27;;;8.70;99.90;;;;;;5011374;28;20289;-73
2021/12/14 11:22:15;;;;;;;10.38;9.27;;;8.60;99.90;;;;;;5012789;28;20201;-74
2021/12/14 11:24:44;;;;;;;11.00;9.80;;;8.60;99.90;;;;;;5012670;28;20194;-75
2021/12/14 11:27:14;;;;;;;9.07;8.18;;;8.70;99.90;;;;;;5012244;28;20218;-74
2021/12/14 11:29:42;;;;;;;8.43;7.63;;;8.70;99.90;;;;;;5011602;28;20204;-74
2021/12/14 11:32:19;;;;;;;8.52;7.72;;;8.60;99.90;;;;;;5009161;28;20545;-73
2021/12/14 11:34:47;;;;;;;9.38;8.48;;;8.70;99.90;;;;;;5012357;28;20228;-73
2021/12/14 11:37:21;;;;;;;9.57;8.68;;;8.80;99.90;;;;;;5012246;28;20225;-73
2021/12/14 11:39:52;;;;;;;7.18;6.45;;;8.80;99.90;;;;;;5011717;28;20198;-73
2021/12/14 11:42:24;;;;;;;8.68;7.78;;;8.90;99.90;;;;;;5012495;28;20202;-74
2021/12/14 11:44:55;;;;;;;7.55;6.85;;;9.00;99.90;;;;;;5011946;28;20653;-73
2021/12/14 11:47:43;;;;;;;9.10;8.20;;;9.00;99.90;;;;;;5011570;28;20625;-73
2021/12/14 11:50:18;;;;;;;8.15;7.32;;;9.00;99.90;;;;;;5011766;28;20198;-73
2021/12/14 11:52:52;;;;;;;7.95;6.80;;;9.10;99.90;;;;;;5012172;28;20667;-73
2021/12/14 11:55:28;;;;;;;7.57;6.88;;;9.10;99.90;;;;;;5011816;28;20198;-73
2021/12/14 11:58:06;;;;;;;8.68;7.65;;;9.20;99.90;;;;;;5011789;28;20226;-73
2021/12/14 12:00:35;;;;;;;8.80;8.00;;;9.40;99.90;;;;;;5011576;28;20197;-73
2021/12/14 12:03:26;;;;;;;7.13;6.53;;;9.50;99.90;;;;;;5011700;28;20642;-73
2021/12/14 12:06:00;;;;;;;7.95;7.22;;;9.60;99.90;;;;;;5011230;28;20293;-73
2021/12/14 12:11:17;;;;;;;8.23;7.43;;;9.60;99.90;;;;;;4991956;28;20195;-73
2021/12/14 12:13:45;;;;;;;8.05;7.25;;;9.50;99.90;;;;;;4992516;28;20198;-74
2021/12/14 12:16:15;;;;;;;9.02;8.05;;;9.50;99.90;;;;;;5006859;28;20222;-74
2021/12/14 12:19:07;;;;;;;8.95;8.15;;;9.50;99.90;;;;;;5003532;28;20289;-73
2021/12/14 12:21:35;;;;;;;8.45;7.60;;;9.40;99.90;;;;;;5010881;28;20270;-74
2021/12/14 12:24:02;;;;;;;8.40;7.60;;;9.30;99.90;;;;;;5011505;28;20585;-73
2021/12/14 12:26:30;;;;;;;8.60;7.80;;;9.30;99.90;;;;;;5011650;28;20728;-73
2021/12/14 12:29:02;;;;;;;9.40;8.30;;;9.20;99.90;;;;;;5011140;28;20262;-73
2021/12/14 12:31:35;;;;;;;9.35;8.23;;;9.20;99.90;;;;;;5011217;28;20198;-73
2021/12/14 12:34:03;;;;;;;8.55;7.75;;;9.20;99.90;;;;;;5011844;28;20182;-73
2021/12/14 12:36:35;;;;;;;9.48;7.85;;;9.10;99.90;;;;;;5011566;28;20203;-73
2021/12/14 12:39:07;;;;;;;7.72;7.03;;;9.10;99.90;;;;;;5011055;28;20190;-73
2021/12/14 12:41:43;;;;;;;9.10;8.20;;;9.10;99.90;;;;;;5010184;28;20735;-73
2021/12/14 12:44:13;;;;;;;8.95;8.13;;;9.20;99.90;;;;;;5010489;28;20197;-73
2021/12/14 12:46:43;;;;;;;9.48;8.55;;;9.30;99.90;;;;;;5011039;28;20202;-73
2021/12/14 12:49:20;;;;;;;9.32;8.48;;;9.30;99.90;;;;;;5010082;28;20229;-73
2021/12/14 12:52:05;;;;;;;9.05;8.15;;;9.30;99.90;;;;;;5003510;28;20201;-73
2021/12/14 12:54:36;;;;;;;10.10;8.40;;;9.20;99.90;;;;;;5010831;28;20654;-74
2021/12/14 12:57:33;;;;;;;10.20;8.80;;;8.80;99.90;;;;;;5007330;28;20211;-73
2021/12/14 13:00:27;;;;;;;9.60;8.70;;;8.70;99.90;;;;;;5011809;28;20207;-73
2021/12/14 13:02:59;;;;;;;9.82;8.82;;;8.70;99.90;;;;;;5011384;28;20253;-73
2021/12/14 13:05:34;;;;;;;10.00;8.77;;;8.70;99.90;;;;;;5011627;28;20234;-73
2021/12/14 13:08:10;;;;;;;10.43;9.32;;;8.80;99.90;;;;;;5010604;28;20228;-73
2021/12/14 13:10:40;;;;;;;10.93;9.77;;;8.80;99.90;;;;;;5011141;28;20186;-73
2021/12/14 13:13:11;;;;;;;11.98;10.20;;;8.50;99.90;;;;;;5011248;28;20297;-73
2021/12/14 13:15:53;;;;;;;10.70;9.30;;;8.40;99.90;;;;;;5011445;28;20206;-73
2021/12/14 13:18:37;;;;;;;12.80;10.10;;;8.30;99.90;;;;;;4994978;28;20241;-73
2021/12/14 13:21:15;;;;;;;12.30;10.43;;;8.40;99.90;;;;;;4995535;28;20247;-73
2021/12/14 13:23:51;;;;;;;16.10;11.82;;;8.40;99.90;;;;;;4995197;28;20677;-73
2021/12/14 13:26:29;;;;;;;11.32;10.23;;;8.40;99.90;;;;;;4999293;28;20286;-73
2021/12/14 13:29:00;;;;;;;13.10;10.88;;;8.50;99.90;;;;;;5014275;28;20309;-73
2021/12/14 13:31:31;;;;;;;13.02;10.70;;;8.50;99.90;;;;;;5014968;28;20293;-73
2021/12/14 13:34:01;;;;;;;14.50;11.55;;;8.50;99.90;;;;;;5014577;28;20202;-73
2021/12/14 13:36:30;;;;;;;14.00;11.70;;;8.40;99.90;;;;;;5014366;28;20622;-73
2021/12/14 13:38:57;;;;;;;14.40;12.20;;;8.40;99.90;;;;;;5013026;28;20205;-73
2021/12/14 13:41:52;;;;;;;15.30;11.18;;;8.30;99.90;;;;;;5009390;28;20861;-73
2021/12/14 13:44:19;;;;;;;13.90;12.23;;;8.30;99.90;;;;;;4987509;28;20666;-73
2021/12/14 13:46:46;;;;;;;15.05;12.18;;;8.30;99.90;;;;;;5014394;28;20253;-73